sensor_id;sensor_type;location;lat;lon;timestamp;temperature;humidity
15574;DHT22;7888;46.748;8.102;2023-02-11T00:00:38;4.50;38.40
15574;DHT22;7888;46.748;8.102;2023-02-11T00:03:05;4.50;38.60
15574;DHT22;7888;46.748;8.102;2023-02-11T00:05:30;4.50;38.50
15574;DHT22;7888;46.748;8.102;2023-02-11T00:07:56;4.40;38.40
15574;DHT22;7888;46.748;8.102;2023-02-11T00:10:22;4.40;38.50
15574;DHT22;7888;46.748;8.102;2023-02-11T00:12:48;4.40;38.60
15574;DHT22;7888;46.748;8.102;2023-02-11T00:15:14;4.40;38.60
15574;DHT22;7888;46.748;8.102;2023-02-11T00:17:39;4.40;38.70
15574;DHT22;7888;46.748;8.102;2023-02-11T00:20:05;4.40;38.80
15574;DHT22;7888;46.748;8.102;2023-02-11T00:22:31;4.40;38.90
15574;DHT22;7888;46.748;8.102;2023-02-11T00:24:57;4.30;38.90
15574;DHT22;7888;46.748;8.102;2023-02-11T00:27:23;4.30;38.80
15574;DHT22;7888;46.748;8.102;2023-02-11T00:29:49;4.30;38.80
15574;DHT22;7888;46.748;8.102;2023-02-11T00:32:14;4.30;38.80
15574;DHT22;7888;46.748;8.102;2023-02-11T00:34:40;4.30;38.90
15574;DHT22;7888;46.748;8.102;2023-02-11T00:37:06;4.30;38.90
15574;DHT22;7888;46.748;8.102;2023-02-11T00:39:32;4.30;38.90
15574;DHT22;7888;46.748;8.102;2023-02-11T00:41:58;4.30;39.00
15574;DHT22;7888;46.748;8.102;2023-02-11T00:44:24;4.30;39.10
15574;DHT22;7888;46.748;8.102;2023-02-11T00:46:50;4.30;39.00
15574;DHT22;7888;46.748;8.102;2023-02-11T00:49:16;4.30;39.10
15574;DHT22;7888;46.748;8.102;2023-02-11T00:51:42;4.20;39.10
15574;DHT22;7888;46.748;8.102;2023-02-11T00:54:07;4.20;39.10
15574;DHT22;7888;46.748;8.102;2023-02-11T00:56:33;4.20;39.10
15574;DHT22;7888;46.748;8.102;2023-02-11T00:58:59;4.20;39.00
15574;DHT22;7888;46.748;8.102;2023-02-11T01:01:25;4.20;39.10
15574;DHT22;7888;46.748;8.102;2023-02-11T01:03:52;4.20;39.20
15574;DHT22;7888;46.748;8.102;2023-02-11T01:06:18;4.20;39.20
15574;DHT22;7888;46.748;8.102;2023-02-11T01:08:44;4.20;39.90
15574;DHT22;7888;46.748;8.102;2023-02-11T01:11:14;4.20;39.20
15574;DHT22;7888;46.748;8.102;2023-02-11T01:13:42;4.10;39.30
15574;DHT22;7888;46.748;8.102;2023-02-11T01:16:09;4.10;39.20
15574;DHT22;7888;46.748;8.102;2023-02-11T01:18:36;4.10;39.30
15574;DHT22;7888;46.748;8.102;2023-02-11T01:21:02;4.10;39.20
15574;DHT22;7888;46.748;8.102;2023-02-11T01:23:28;4.10;39.10
15574;DHT22;7888;46.748;8.102;2023-02-11T01:25:54;4.10;39.10
15574;DHT22;7888;46.748;8.102;2023-02-11T01:28:23;4.10;39.20
15574;DHT22;7888;46.748;8.102;2023-02-11T01:30:51;4.00;39.30
15574;DHT22;7888;46.748;8.102;2023-02-11T01:33:17;4.00;39.30
15574;DHT22;7888;46.748;8.102;2023-02-11T01:35:44;4.00;39.30
15574;DHT22;7888;46.748;8.102;2023-02-11T01:38:24;4.00;39.30
15574;DHT22;7888;46.748;8.102;2023-02-11T01:40:59;4.00;39.70
15574;DHT22;7888;46.748;8.102;2023-02-11T01:43:34;4.00;39.60
15574;DHT22;7888;46.748;8.102;2023-02-11T01:49:19;4.00;39.60
15574;DHT22;7888;46.748;8.102;2023-02-11T01:51:57;3.90;39.80
15574;DHT22;7888;46.748;8.102;2023-02-11T01:54:43;3.90;39.30
15574;DHT22;7888;46.748;8.102;2023-02-11T01:57:33;3.90;39.70
15574;DHT22;7888;46.748;8.102;2023-02-11T02:10:50;3.80;39.80
15574;DHT22;7888;46.748;8.102;2023-02-11T02:13:23;3.80;39.60
15574;DHT22;7888;46.748;8.102;2023-02-11T02:15:58;3.80;39.70
15574;DHT22;7888;46.748;8.102;2023-02-11T02:36:44;3.60;40.50
15574;DHT22;7888;46.748;8.102;2023-02-11T02:39:30;3.60;40.00
15574;DHT22;7888;46.748;8.102;2023-02-11T02:41:59;3.60;39.80
15574;DHT22;7888;46.748;8.102;2023-02-11T02:44:25;3.50;39.70
15574;DHT22;7888;46.748;8.102;2023-02-11T02:46:52;3.50;39.80
15574;DHT22;7888;46.748;8.102;2023-02-11T02:49:18;3.50;39.90
15574;DHT22;7888;46.748;8.102;2023-02-11T02:55:06;3.50;40.20
15574;DHT22;7888;46.748;8.102;2023-02-11T03:03:16;3.40;39.90
15574;DHT22;7888;46.748;8.102;2023-02-11T03:06:12;3.40;39.90
15574;DHT22;7888;46.748;8.102;2023-02-11T03:09:02;3.50;40.00
15574;DHT22;7888;46.748;8.102;2023-02-11T03:11:37;3.40;39.90
15574;DHT22;7888;46.748;8.102;2023-02-11T03:14:08;3.40;39.70
15574;DHT22;7888;46.748;8.102;2023-02-11T03:16:37;3.40;39.80
15574;DHT22;7888;46.748;8.102;2023-02-11T03:19:17;3.40;39.80
15574;DHT22;7888;46.748;8.102;2023-02-11T03:21:48;3.40;40.20
15574;DHT22;7888;46.748;8.102;2023-02-11T03:24:37;3.40;39.80
15574;DHT22;7888;46.748;8.102;2023-02-11T03:27:14;3.40;40.30
15574;DHT22;7888;46.748;8.102;2023-02-11T03:30:21;3.40;40.10
15574;DHT22;7888;46.748;8.102;2023-02-11T03:33:24;3.40;40.20
15574;DHT22;7888;46.748;8.102;2023-02-11T03:35:55;3.40;40.00
15574;DHT22;7888;46.748;8.102;2023-02-11T03:38:32;3.40;40.20
15574;DHT22;7888;46.748;8.102;2023-02-11T03:41:05;3.40;40.00
15574;DHT22;7888;46.748;8.102;2023-02-11T03:43:36;3.40;39.90
15574;DHT22;7888;46.748;8.102;2023-02-11T03:46:07;3.40;40.00
15574;DHT22;7888;46.748;8.102;2023-02-11T03:48:41;3.40;40.00
15574;DHT22;7888;46.748;8.102;2023-02-11T03:51:11;3.40;40.20
15574;DHT22;7888;46.748;8.102;2023-02-11T03:53:41;3.40;40.30
15574;DHT22;7888;46.748;8.102;2023-02-11T03:56:19;3.40;40.40
15574;DHT22;7888;46.748;8.102;2023-02-11T03:58:48;3.40;40.40
15574;DHT22;7888;46.748;8.102;2023-02-11T04:01:14;3.30;40.30
15574;DHT22;7888;46.748;8.102;2023-02-11T04:03:40;3.30;40.40
15574;DHT22;7888;46.748;8.102;2023-02-11T04:06:06;3.30;40.40
15574;DHT22;7888;46.748;8.102;2023-02-11T04:08:33;3.30;40.40
15574;DHT22;7888;46.748;8.102;2023-02-11T04:10:59;3.30;40.40
15574;DHT22;7888;46.748;8.102;2023-02-11T04:13:25;3.20;40.40
15574;DHT22;7888;46.748;8.102;2023-02-11T04:15:51;3.20;40.40
15574;DHT22;7888;46.748;8.102;2023-02-11T04:18:16;3.20;40.40
15574;DHT22;7888;46.748;8.102;2023-02-11T04:20:42;3.20;40.40
15574;DHT22;7888;46.748;8.102;2023-02-11T04:23:08;3.20;40.40
15574;DHT22;7888;46.748;8.102;2023-02-11T04:25:34;3.20;40.50
15574;DHT22;7888;46.748;8.102;2023-02-11T04:28:00;3.20;40.60
15574;DHT22;7888;46.748;8.102;2023-02-11T04:30:26;3.20;40.60
15574;DHT22;7888;46.748;8.102;2023-02-11T04:32:52;3.20;40.60
15574;DHT22;7888;46.748;8.102;2023-02-11T04:35:19;3.20;40.50
15574;DHT22;7888;46.748;8.102;2023-02-11T04:37:45;3.10;40.60
15574;DHT22;7888;46.748;8.102;2023-02-11T04:40:11;3.10;40.50
15574;DHT22;7888;46.748;8.102;2023-02-11T04:42:37;3.10;40.50
15574;DHT22;7888;46.748;8.102;2023-02-11T04:45:03;3.10;40.40
15574;DHT22;7888;46.748;8.102;2023-02-11T04:47:29;3.10;40.50
15574;DHT22;7888;46.748;8.102;2023-02-11T04:49:55;3.10;40.50
15574;DHT22;7888;46.748;8.102;2023-02-11T04:52:21;3.10;40.40
15574;DHT22;7888;46.748;8.102;2023-02-11T04:54:47;3.10;40.50
15574;DHT22;7888;46.748;8.102;2023-02-11T04:57:12;3.10;40.60
15574;DHT22;7888;46.748;8.102;2023-02-11T04:59:38;3.10;40.60
15574;DHT22;7888;46.748;8.102;2023-02-11T05:02:05;3.10;40.60
15574;DHT22;7888;46.748;8.102;2023-02-11T05:04:31;3.10;40.70
15574;DHT22;7888;46.748;8.102;2023-02-11T05:06:57;3.10;40.80
15574;DHT22;7888;46.748;8.102;2023-02-11T05:09:22;3.10;40.70
15574;DHT22;7888;46.748;8.102;2023-02-11T05:11:49;3.10;40.70
15574;DHT22;7888;46.748;8.102;2023-02-11T05:14:14;3.00;40.80
15574;DHT22;7888;46.748;8.102;2023-02-11T05:16:40;3.00;40.90
15574;DHT22;7888;46.748;8.102;2023-02-11T05:19:06;3.00;40.90
15574;DHT22;7888;46.748;8.102;2023-02-11T05:21:32;3.00;40.90
15574;DHT22;7888;46.748;8.102;2023-02-11T05:23:57;3.00;40.90
15574;DHT22;7888;46.748;8.102;2023-02-11T05:26:24;3.00;40.90
15574;DHT22;7888;46.748;8.102;2023-02-11T05:28:50;3.00;40.90
15574;DHT22;7888;46.748;8.102;2023-02-11T05:31:15;3.00;40.90
15574;DHT22;7888;46.748;8.102;2023-02-11T05:33:41;3.00;40.90
15574;DHT22;7888;46.748;8.102;2023-02-11T05:36:10;3.00;40.90
15574;DHT22;7888;46.748;8.102;2023-02-11T05:38:38;3.00;41.00
15574;DHT22;7888;46.748;8.102;2023-02-11T05:41:05;2.90;40.90
15574;DHT22;7888;46.748;8.102;2023-02-11T05:43:31;2.90;40.90
15574;DHT22;7888;46.748;8.102;2023-02-11T05:45:59;3.00;41.00
15574;DHT22;7888;46.748;8.102;2023-02-11T05:48:25;3.00;41.00
15574;DHT22;7888;46.748;8.102;2023-02-11T05:50:51;3.00;41.00
15574;DHT22;7888;46.748;8.102;2023-02-11T05:53:17;3.00;41.00
15574;DHT22;7888;46.748;8.102;2023-02-11T05:55:42;3.00;41.00
15574;DHT22;7888;46.748;8.102;2023-02-11T05:58:09;3.00;40.90
15574;DHT22;7888;46.748;8.102;2023-02-11T06:00:35;3.00;41.00
15574;DHT22;7888;46.748;8.102;2023-02-11T06:03:01;3.00;41.00
15574;DHT22;7888;46.748;8.102;2023-02-11T06:05:29;3.00;41.00
15574;DHT22;7888;46.748;8.102;2023-02-11T06:07:54;3.00;41.00
15574;DHT22;7888;46.748;8.102;2023-02-11T06:10:21;3.00;41.00
15574;DHT22;7888;46.748;8.102;2023-02-11T06:12:46;3.00;41.00
15574;DHT22;7888;46.748;8.102;2023-02-11T06:15:12;3.00;40.90
15574;DHT22;7888;46.748;8.102;2023-02-11T06:17:38;3.00;40.90
15574;DHT22;7888;46.748;8.102;2023-02-11T06:20:06;3.00;40.80
15574;DHT22;7888;46.748;8.102;2023-02-11T06:22:33;3.00;40.90
15574;DHT22;7888;46.748;8.102;2023-02-11T06:24:59;3.00;40.90
15574;DHT22;7888;46.748;8.102;2023-02-11T06:27:25;3.00;41.00
15574;DHT22;7888;46.748;8.102;2023-02-11T06:29:50;3.00;40.90
15574;DHT22;7888;46.748;8.102;2023-02-11T06:32:19;3.00;40.90
15574;DHT22;7888;46.748;8.102;2023-02-11T06:34:45;3.00;40.90
15574;DHT22;7888;46.748;8.102;2023-02-11T06:37:11;3.00;40.90
15574;DHT22;7888;46.748;8.102;2023-02-11T06:39:37;3.00;40.90
15574;DHT22;7888;46.748;8.102;2023-02-11T06:42:03;3.00;40.90
15574;DHT22;7888;46.748;8.102;2023-02-11T06:44:28;3.00;40.90
15574;DHT22;7888;46.748;8.102;2023-02-11T06:46:54;3.00;40.90
15574;DHT22;7888;46.748;8.102;2023-02-11T06:49:20;3.00;40.90
15574;DHT22;7888;46.748;8.102;2023-02-11T06:51:46;3.00;40.90
15574;DHT22;7888;46.748;8.102;2023-02-11T06:54:12;3.00;41.00
15574;DHT22;7888;46.748;8.102;2023-02-11T06:56:39;3.00;41.10
15574;DHT22;7888;46.748;8.102;2023-02-11T06:59:06;3.00;41.00
15574;DHT22;7888;46.748;8.102;2023-02-11T07:01:32;3.00;41.00
15574;DHT22;7888;46.748;8.102;2023-02-11T07:03:58;3.00;41.10
15574;DHT22;7888;46.748;8.102;2023-02-11T07:06:25;3.00;41.10
15574;DHT22;7888;46.748;8.102;2023-02-11T07:08:52;3.00;41.20
15574;DHT22;7888;46.748;8.102;2023-02-11T07:11:29;2.90;41.20
15574;DHT22;7888;46.748;8.102;2023-02-11T07:14:01;2.90;41.50
15574;DHT22;7888;46.748;8.102;2023-02-11T07:16:29;2.90;42.00
15574;DHT22;7888;46.748;8.102;2023-02-11T07:18:55;3.00;42.20
15574;DHT22;7888;46.748;8.102;2023-02-11T07:21:22;3.00;42.00
15574;DHT22;7888;46.748;8.102;2023-02-11T07:23:51;3.00;41.90
15574;DHT22;7888;46.748;8.102;2023-02-11T07:26:19;3.10;41.80
15574;DHT22;7888;46.748;8.102;2023-02-11T07:28:48;3.10;41.70
15574;DHT22;7888;46.748;8.102;2023-02-11T07:31:17;3.10;41.60
15574;DHT22;7888;46.748;8.102;2023-02-11T07:33:44;3.20;41.70
15574;DHT22;7888;46.748;8.102;2023-02-11T07:36:12;3.20;41.60
15574;DHT22;7888;46.748;8.102;2023-02-11T07:38:39;3.20;41.60
15574;DHT22;7888;46.748;8.102;2023-02-11T07:41:08;3.20;41.60
15574;DHT22;7888;46.748;8.102;2023-02-11T07:43:37;3.30;41.60
15574;DHT22;7888;46.748;8.102;2023-02-11T07:46:14;3.30;41.70
15574;DHT22;7888;46.748;8.102;2023-02-11T07:48:46;3.30;41.90
15574;DHT22;7888;46.748;8.102;2023-02-11T07:51:15;3.40;42.00
15574;DHT22;7888;46.748;8.102;2023-02-11T07:53:44;3.50;42.30
15574;DHT22;7888;46.748;8.102;2023-02-11T07:56:11;3.60;42.40
15574;DHT22;7888;46.748;8.102;2023-02-11T07:58:39;3.70;42.50
15574;DHT22;7888;46.748;8.102;2023-02-11T08:01:09;3.70;42.50
15574;DHT22;7888;46.748;8.102;2023-02-11T08:03:37;3.80;42.80
15574;DHT22;7888;46.748;8.102;2023-02-11T08:06:05;3.90;42.90
15574;DHT22;7888;46.748;8.102;2023-02-11T08:08:33;4.00;42.80
15574;DHT22;7888;46.748;8.102;2023-02-11T08:11:05;4.10;42.70
15574;DHT22;7888;46.748;8.102;2023-02-11T08:13:32;4.10;42.70
15574;DHT22;7888;46.748;8.102;2023-02-11T08:15:59;4.20;42.30
15574;DHT22;7888;46.748;8.102;2023-02-11T08:18:24;4.30;42.30
15574;DHT22;7888;46.748;8.102;2023-02-11T08:20:50;4.40;42.40
15574;DHT22;7888;46.748;8.102;2023-02-11T08:23:16;4.50;42.60
15574;DHT22;7888;46.748;8.102;2023-02-11T08:25:42;4.60;42.60
15574;DHT22;7888;46.748;8.102;2023-02-11T08:28:07;4.70;42.60
15574;DHT22;7888;46.748;8.102;2023-02-11T08:30:34;4.80;42.60
15574;DHT22;7888;46.748;8.102;2023-02-11T08:33:00;4.90;42.70
15574;DHT22;7888;46.748;8.102;2023-02-11T08:35:26;5.00;42.70
15574;DHT22;7888;46.748;8.102;2023-02-11T08:37:52;5.10;42.50
15574;DHT22;7888;46.748;8.102;2023-02-11T08:40:19;5.20;42.40
15574;DHT22;7888;46.748;8.102;2023-02-11T08:42:45;5.30;42.50
15574;DHT22;7888;46.748;8.102;2023-02-11T08:45:11;5.40;42.50
15574;DHT22;7888;46.748;8.102;2023-02-11T08:47:37;5.50;42.70
15574;DHT22;7888;46.748;8.102;2023-02-11T08:50:04;5.60;42.80
15574;DHT22;7888;46.748;8.102;2023-02-11T08:52:30;5.80;42.90
15574;DHT22;7888;46.748;8.102;2023-02-11T08:54:56;5.90;42.90
15574;DHT22;7888;46.748;8.102;2023-02-11T08:57:23;6.10;42.90
15574;DHT22;7888;46.748;8.102;2023-02-11T08:59:48;6.30;42.80
15574;DHT22;7888;46.748;8.102;2023-02-11T09:02:14;6.40;42.40
15574;DHT22;7888;46.748;8.102;2023-02-11T09:04:40;6.60;42.30
15574;DHT22;7888;46.748;8.102;2023-02-11T09:07:06;6.70;42.40
15574;DHT22;7888;46.748;8.102;2023-02-11T09:09:32;6.80;42.30
15574;DHT22;7888;46.748;8.102;2023-02-11T09:11:58;6.90;42.00
15574;DHT22;7888;46.748;8.102;2023-02-11T09:14:26;7.10;41.80
15574;DHT22;7888;46.748;8.102;2023-02-11T09:16:52;7.20;41.70
15574;DHT22;7888;46.748;8.102;2023-02-11T09:19:19;7.30;41.40
15574;DHT22;7888;46.748;8.102;2023-02-11T09:21:45;7.40;41.30
15574;DHT22;7888;46.748;8.102;2023-02-11T09:24:11;7.50;41.40
15574;DHT22;7888;46.748;8.102;2023-02-11T09:26:37;7.60;41.30
15574;DHT22;7888;46.748;8.102;2023-02-11T09:29:06;7.70;41.20
15574;DHT22;7888;46.748;8.102;2023-02-11T09:31:32;7.80;41.20
15574;DHT22;7888;46.748;8.102;2023-02-11T09:34:04;7.90;41.00
15574;DHT22;7888;46.748;8.102;2023-02-11T09:36:33;8.00;41.00
15574;DHT22;7888;46.748;8.102;2023-02-11T09:39:08;8.10;40.90
15574;DHT22;7888;46.748;8.102;2023-02-11T09:44:37;8.30;40.90
15574;DHT22;7888;46.748;8.102;2023-02-11T09:47:24;8.30;40.70
15574;DHT22;7888;46.748;8.102;2023-02-11T09:55:29;8.70;40.30
15574;DHT22;7888;46.748;8.102;2023-02-11T09:58:03;8.90;40.00
15574;DHT22;7888;46.748;8.102;2023-02-11T10:11:56;9.30;39.00
15574;DHT22;7888;46.748;8.102;2023-02-11T10:15:14;9.30;38.80
15574;DHT22;7888;46.748;8.102;2023-02-11T10:17:58;9.40;38.30
15574;DHT22;7888;46.748;8.102;2023-02-11T10:23:54;9.50;39.10
15574;DHT22;7888;46.748;8.102;2023-02-11T10:26:26;9.70;38.90
15574;DHT22;7888;46.748;8.102;2023-02-11T10:28:59;9.90;38.70
15574;DHT22;7888;46.748;8.102;2023-02-11T10:31:48;10.00;38.40
15574;DHT22;7888;46.748;8.102;2023-02-11T10:34:15;10.20;37.90
15574;DHT22;7888;46.748;8.102;2023-02-11T10:36:42;10.30;38.30
15574;DHT22;7888;46.748;8.102;2023-02-11T10:39:19;10.30;37.90
15574;DHT22;7888;46.748;8.102;2023-02-11T10:41:59;10.40;37.80
15574;DHT22;7888;46.748;8.102;2023-02-11T10:44:32;10.50;37.80
15574;DHT22;7888;46.748;8.102;2023-02-11T10:47:08;10.60;37.90
15574;DHT22;7888;46.748;8.102;2023-02-11T10:49:57;10.60;37.90
15574;DHT22;7888;46.748;8.102;2023-02-11T10:52:28;10.80;37.90
15574;DHT22;7888;46.748;8.102;2023-02-11T10:54:56;10.90;37.90
15574;DHT22;7888;46.748;8.102;2023-02-11T10:57:27;10.90;37.80
15574;DHT22;7888;46.748;8.102;2023-02-11T11:02:42;11.20;37.20
15574;DHT22;7888;46.748;8.102;2023-02-11T11:05:18;11.30;36.90
15574;DHT22;7888;46.748;8.102;2023-02-11T11:07:58;11.40;36.20
15574;DHT22;7888;46.748;8.102;2023-02-11T11:18:37;11.30;36.30
15574;DHT22;7888;46.748;8.102;2023-02-11T11:21:25;11.40;36.70
15574;DHT22;7888;46.748;8.102;2023-02-11T11:24:00;11.40;36.50
15574;DHT22;7888;46.748;8.102;2023-02-11T11:26:41;11.50;36.50
15574;DHT22;7888;46.748;8.102;2023-02-11T11:29:16;11.60;36.20
15574;DHT22;7888;46.748;8.102;2023-02-11T11:32:01;11.70;36.30
15574;DHT22;7888;46.748;8.102;2023-02-11T11:34:34;12.00;36.20
15574;DHT22;7888;46.748;8.102;2023-02-11T11:37:17;12.20;36.60
15574;DHT22;7888;46.748;8.102;2023-02-11T11:42:41;12.70;35.40
15574;DHT22;7888;46.748;8.102;2023-02-11T11:48:10;13.10;35.60
15574;DHT22;7888;46.748;8.102;2023-02-11T11:50:49;13.30;34.40
15574;DHT22;7888;46.748;8.102;2023-02-11T11:56:05;13.70;35.10
15574;DHT22;7888;46.748;8.102;2023-02-11T11:58:36;13.90;34.70
15574;DHT22;7888;46.748;8.102;2023-02-11T12:04:54;14.30;33.80
15574;DHT22;7888;46.748;8.102;2023-02-11T12:08:10;14.40;33.60
15574;DHT22;7888;46.748;8.102;2023-02-11T12:17:13;14.90;33.30
15574;DHT22;7888;46.748;8.102;2023-02-11T12:19:52;14.90;33.40
15574;DHT22;7888;46.748;8.102;2023-02-11T12:34:49;14.60;32.80
15574;DHT22;7888;46.748;8.102;2023-02-11T12:40:47;14.40;32.30
15574;DHT22;7888;46.748;8.102;2023-02-11T12:43:37;14.30;32.30
15574;DHT22;7888;46.748;8.102;2023-02-11T12:49:29;14.30;32.80
15574;DHT22;7888;46.748;8.102;2023-02-11T12:58:14;14.60;32.60
15574;DHT22;7888;46.748;8.102;2023-02-11T13:03:53;14.60;32.20
15574;DHT22;7888;46.748;8.102;2023-02-11T13:06:30;14.50;32.30
15574;DHT22;7888;46.748;8.102;2023-02-11T13:09:04;14.40;32.30
15574;DHT22;7888;46.748;8.102;2023-02-11T13:11:38;14.40;32.50
15574;DHT22;7888;46.748;8.102;2023-02-11T13:14:25;14.30;32.50
15574;DHT22;7888;46.748;8.102;2023-02-11T13:16:55;14.20;32.40
15574;DHT22;7888;46.748;8.102;2023-02-11T13:19:32;14.20;32.70
15574;DHT22;7888;46.748;8.102;2023-02-11T13:22:09;14.10;32.60
15574;DHT22;7888;46.748;8.102;2023-02-11T13:25:03;14.10;32.70
15574;DHT22;7888;46.748;8.102;2023-02-11T13:28:04;14.10;32.40
15574;DHT22;7888;46.748;8.102;2023-02-11T13:30:50;14.10;32.60
15574;DHT22;7888;46.748;8.102;2023-02-11T13:33:37;14.20;32.60
15574;DHT22;7888;46.748;8.102;2023-02-11T13:38:33;14.20;32.50
15574;DHT22;7888;46.748;8.102;2023-02-11T13:43:40;14.00;32.50
15574;DHT22;7888;46.748;8.102;2023-02-11T13:46:10;14.10;33.00
15574;DHT22;7888;46.748;8.102;2023-02-11T13:48:49;14.20;33.30
15574;DHT22;7888;46.748;8.102;2023-02-11T13:51:38;14.40;33.20
15574;DHT22;7888;46.748;8.102;2023-02-11T13:54:07;14.70;33.30
15574;DHT22;7888;46.748;8.102;2023-02-11T13:56:43;15.00;33.60
15574;DHT22;7888;46.748;8.102;2023-02-11T14:02:19;15.50;32.00
15574;DHT22;7888;46.748;8.102;2023-02-11T14:16:19;16.30;31.50
15574;DHT22;7888;46.748;8.102;2023-02-11T14:21:19;16.50;32.60
15574;DHT22;7888;46.748;8.102;2023-02-11T14:23:49;16.70;32.30
15574;DHT22;7888;46.748;8.102;2023-02-11T14:41:05;17.80;30.80
15574;DHT22;7888;46.748;8.102;2023-02-11T14:43:58;17.80;30.60
15574;DHT22;7888;46.748;8.102;2023-02-11T14:46:28;17.70;30.40
15574;DHT22;7888;46.748;8.102;2023-02-11T14:48:58;17.70;31.40
15574;DHT22;7888;46.748;8.102;2023-02-11T14:51:33;17.80;31.30
15574;DHT22;7888;46.748;8.102;2023-02-11T14:54:13;17.80;31.20
15574;DHT22;7888;46.748;8.102;2023-02-11T14:56:43;17.80;31.10
15574;DHT22;7888;46.748;8.102;2023-02-11T14:59:21;18.00;31.10
15574;DHT22;7888;46.748;8.102;2023-02-11T15:01:51;18.10;30.30
15574;DHT22;7888;46.748;8.102;2023-02-11T15:04:33;18.20;30.00
15574;DHT22;7888;46.748;8.102;2023-02-11T15:07:06;18.20;29.90
15574;DHT22;7888;46.748;8.102;2023-02-11T15:09:44;18.10;29.50
15574;DHT22;7888;46.748;8.102;2023-02-11T15:12:26;18.10;29.70
15574;DHT22;7888;46.748;8.102;2023-02-11T15:14:55;18.00;29.30
15574;DHT22;7888;46.748;8.102;2023-02-11T15:17:29;18.00;29.80
15574;DHT22;7888;46.748;8.102;2023-02-11T15:19:59;18.00;29.50
15574;DHT22;7888;46.748;8.102;2023-02-11T15:22:32;18.00;29.80
15574;DHT22;7888;46.748;8.102;2023-02-11T15:25:12;17.90;29.80
15574;DHT22;7888;46.748;8.102;2023-02-11T15:27:44;17.90;29.60
15574;DHT22;7888;46.748;8.102;2023-02-11T15:32:49;17.80;29.50
15574;DHT22;7888;46.748;8.102;2023-02-11T15:35:37;17.90;29.80
15574;DHT22;7888;46.748;8.102;2023-02-11T15:38:06;17.80;29.30
15574;DHT22;7888;46.748;8.102;2023-02-11T15:40:34;17.80;29.60
15574;DHT22;7888;46.748;8.102;2023-02-11T15:43:07;17.80;29.50
15574;DHT22;7888;46.748;8.102;2023-02-11T15:45:39;17.80;29.30
15574;DHT22;7888;46.748;8.102;2023-02-11T15:48:33;17.90;29.20
15574;DHT22;7888;46.748;8.102;2023-02-11T15:51:07;17.80;29.20
15574;DHT22;7888;46.748;8.102;2023-02-11T15:53:47;17.80;29.30
15574;DHT22;7888;46.748;8.102;2023-02-11T15:56:39;17.60;29.00
15574;DHT22;7888;46.748;8.102;2023-02-11T15:59:10;17.30;29.00
15574;DHT22;7888;46.748;8.102;2023-02-11T16:01:47;17.20;29.10
15574;DHT22;7888;46.748;8.102;2023-02-11T16:04:19;17.00;29.30
15574;DHT22;7888;46.748;8.102;2023-02-11T16:06:48;16.80;29.40
15574;DHT22;7888;46.748;8.102;2023-02-11T16:14:33;16.30;29.40
15574;DHT22;7888;46.748;8.102;2023-02-11T16:19:35;16.10;29.80
15574;DHT22;7888;46.748;8.102;2023-02-11T16:22:09;16.00;29.80
15574;DHT22;7888;46.748;8.102;2023-02-11T16:24:40;15.80;29.90
15574;DHT22;7888;46.748;8.102;2023-02-11T16:27:25;15.70;30.00
15574;DHT22;7888;46.748;8.102;2023-02-11T16:29:55;15.50;30.00
15574;DHT22;7888;46.748;8.102;2023-02-11T16:32:24;15.40;30.00
15574;DHT22;7888;46.748;8.102;2023-02-11T16:34:55;15.30;30.10
15574;DHT22;7888;46.748;8.102;2023-02-11T16:37:23;15.10;30.10
15574;DHT22;7888;46.748;8.102;2023-02-11T16:39:52;15.00;30.30
15574;DHT22;7888;46.748;8.102;2023-02-11T16:42:19;14.90;30.30
15574;DHT22;7888;46.748;8.102;2023-02-11T16:44:45;14.70;30.30
15574;DHT22;7888;46.748;8.102;2023-02-11T16:47:37;14.60;30.40
15574;DHT22;7888;46.748;8.102;2023-02-11T16:50:11;14.50;30.30
15574;DHT22;7888;46.748;8.102;2023-02-11T16:52:45;14.40;30.50
15574;DHT22;7888;46.748;8.102;2023-02-11T16:55:11;14.20;30.60
15574;DHT22;7888;46.748;8.102;2023-02-11T16:57:37;14.10;30.70
15574;DHT22;7888;46.748;8.102;2023-02-11T17:00:06;14.00;30.80
15574;DHT22;7888;46.748;8.102;2023-02-11T17:02:33;13.80;31.20
15574;DHT22;7888;46.748;8.102;2023-02-11T17:05:03;13.70;31.10
15574;DHT22;7888;46.748;8.102;2023-02-11T17:07:30;13.60;31.10
15574;DHT22;7888;46.748;8.102;2023-02-11T17:09:57;13.50;31.20
15574;DHT22;7888;46.748;8.102;2023-02-11T17:12:23;13.30;31.90
15574;DHT22;7888;46.748;8.102;2023-02-11T17:14:50;13.20;31.70
15574;DHT22;7888;46.748;8.102;2023-02-11T17:17:16;13.10;31.70
15574;DHT22;7888;46.748;8.102;2023-02-11T17:19:42;13.00;31.60
15574;DHT22;7888;46.748;8.102;2023-02-11T17:22:09;12.90;31.70
15574;DHT22;7888;46.748;8.102;2023-02-11T17:24:36;12.80;32.00
15574;DHT22;7888;46.748;8.102;2023-02-11T17:27:02;12.60;32.00
15574;DHT22;7888;46.748;8.102;2023-02-11T17:29:28;12.50;32.10
15574;DHT22;7888;46.748;8.102;2023-02-11T17:31:54;12.40;32.20
15574;DHT22;7888;46.748;8.102;2023-02-11T17:34:21;12.30;32.30
15574;DHT22;7888;46.748;8.102;2023-02-11T17:36:48;12.20;32.50
15574;DHT22;7888;46.748;8.102;2023-02-11T17:39:14;12.10;32.60
15574;DHT22;7888;46.748;8.102;2023-02-11T17:41:43;12.00;32.60
15574;DHT22;7888;46.748;8.102;2023-02-11T17:44:10;11.90;32.70
15574;DHT22;7888;46.748;8.102;2023-02-11T17:46:40;11.80;32.80
15574;DHT22;7888;46.748;8.102;2023-02-11T17:49:06;11.70;32.90
15574;DHT22;7888;46.748;8.102;2023-02-11T17:51:35;11.70;33.00
15574;DHT22;7888;46.748;8.102;2023-02-11T17:54:08;11.60;33.20
15574;DHT22;7888;46.748;8.102;2023-02-11T17:56:39;11.50;33.30
15574;DHT22;7888;46.748;8.102;2023-02-11T17:59:07;11.40;33.40
15574;DHT22;7888;46.748;8.102;2023-02-11T18:01:37;11.30;33.50
15574;DHT22;7888;46.748;8.102;2023-02-11T18:04:04;11.20;33.60
15574;DHT22;7888;46.748;8.102;2023-02-11T18:06:31;11.10;33.60
15574;DHT22;7888;46.748;8.102;2023-02-11T18:09:00;11.00;33.60
15574;DHT22;7888;46.748;8.102;2023-02-11T18:11:30;11.00;33.90
15574;DHT22;7888;46.748;8.102;2023-02-11T18:14:00;10.90;34.00
15574;DHT22;7888;46.748;8.102;2023-02-11T18:16:29;10.80;34.10
15574;DHT22;7888;46.748;8.102;2023-02-11T18:18:56;10.70;34.00
15574;DHT22;7888;46.748;8.102;2023-02-11T18:21:23;10.70;34.10
15574;DHT22;7888;46.748;8.102;2023-02-11T18:23:50;10.60;34.20
15574;DHT22;7888;46.748;8.102;2023-02-11T18:26:19;10.60;34.30
15574;DHT22;7888;46.748;8.102;2023-02-11T18:28:45;10.50;34.40
15574;DHT22;7888;46.748;8.102;2023-02-11T18:31:12;10.40;34.40
15574;DHT22;7888;46.748;8.102;2023-02-11T18:33:39;10.40;34.40
15574;DHT22;7888;46.748;8.102;2023-02-11T18:36:11;10.30;34.40
15574;DHT22;7888;46.748;8.102;2023-02-11T18:38:38;10.20;34.40
15574;DHT22;7888;46.748;8.102;2023-02-11T18:41:05;10.10;34.40
15574;DHT22;7888;46.748;8.102;2023-02-11T18:43:31;10.10;34.60
15574;DHT22;7888;46.748;8.102;2023-02-11T18:46:00;10.00;34.60
15574;DHT22;7888;46.748;8.102;2023-02-11T18:48:27;9.90;34.70
15574;DHT22;7888;46.748;8.102;2023-02-11T18:50:54;9.90;34.90
15574;DHT22;7888;46.748;8.102;2023-02-11T18:53:21;9.80;35.00
15574;DHT22;7888;46.748;8.102;2023-02-11T18:55:48;9.80;35.10
15574;DHT22;7888;46.748;8.102;2023-02-11T18:58:14;9.70;35.10
15574;DHT22;7888;46.748;8.102;2023-02-11T19:00:42;9.70;35.20
15574;DHT22;7888;46.748;8.102;2023-02-11T19:03:10;9.60;35.30
15574;DHT22;7888;46.748;8.102;2023-02-11T19:05:44;9.60;35.30